Time;durP1;ratioP1;P1;durP2;ratioP2;P2;SDS_P1;SDS_P2;PMS_P1;PMS_P2;Temp;Humidity;BMP_temperature;BMP_pressure;BME280_temperature;BME280_humidity;BME280_pressure;Samples;Min_cycle;Max_cycle;Signal;HPM_P1;HPM_P2
2023/09/28 00:01:12;;;;;;;19.02;13.43;;;;;;;;;;10472640;28;20721;-85
2023/09/28 00:06:13;;;;;;;21.02;14.98;;;;;;;;;;10481543;28;20261;-84
2023/09/28 00:11:14;;;;;;;27.30;15.70;;;;;;;;;;10486254;28;20575;-86
2023/09/28 00:16:15;;;;;;;23.77;13.68;;;;;;;;;;10472736;28;20036;-83
2023/09/28 00:21:16;;;;;;;24.77;13.88;;;;;;;;;;10492300;28;20103;-84
2023/09/28 00:26:19;;;;;;;26.67;16.27;;;;;;;;;;10490560;28;20029;-84
2023/09/28 00:31:20;;;;;;;25.63;14.57;;;;;;;;;;10475584;28;20392;-84
2023/09/28 00:36:21;;;;;;;21.15;14.70;;;;;;;;;;10491279;28;20036;-84
2023/09/28 00:41:22;;;;;;;26.00;16.67;;;;;;;;;;10492063;28;20024;-85
2023/09/28 00:46:24;;;;;;;26.25;16.17;;;;;;;;;;10489569;28;20507;-85
2023/09/28 00:51:27;;;;;;;25.85;16.10;;;;;;;;;;10482153;28;20072;-83
2023/09/28 00:56:29;;;;;;;24.85;15.82;;;;;;;;;;10472471;28;20107;-85
2023/09/28 01:01:31;;;;;;;24.05;15.30;;;;;;;;;;10479464;28;20389;-84
2023/09/28 01:06:35;;;;;;;25.63;17.25;;;;;;;;;;10479361;28;20460;-84
2023/09/28 01:11:36;;;;;;;26.75;16.77;;;;;;;;;;10489856;28;20040;-84
2023/09/28 01:16:38;;;;;;;23.08;15.88;;;;;;;;;;10482038;28;20031;-84
2023/09/28 01:21:40;;;;;;;21.90;15.20;;;;;;;;;;10469969;28;20032;-83
2023/09/28 01:26:41;;;;;;;19.50;13.40;;;;;;;;;;10489845;28;20043;-84
2023/09/28 01:31:42;;;;;;;21.00;14.88;;;;;;;;;;10488461;28;20036;-83
2023/09/28 01:36:43;;;;;;;33.00;18.50;;;;;;;;;;10489269;28;20029;-83
2023/09/28 01:41:44;;;;;;;26.80;18.55;;;;;;;;;;10488829;28;20527;-84
2023/09/28 01:46:45;;;;;;;28.73;19.40;;;;;;;;;;10474178;28;20043;-84
2023/09/28 01:51:46;;;;;;;29.65;18.95;;;;;;;;;;10487602;28;20061;-84
2023/09/28 01:56:47;;;;;;;22.40;14.93;;;;;;;;;;10477200;28;20028;-84
2023/09/28 02:01:49;;;;;;;21.67;14.55;;;;;;;;;;10487316;28;20031;-85
2023/09/28 02:06:50;;;;;;;21.38;13.75;;;;;;;;;;10477005;28;20028;-83
2023/09/28 02:11:51;;;;;;;25.13;17.92;;;;;;;;;;10470008;28;20035;-84
2023/09/28 02:16:52;;;;;;;23.95;15.70;;;;;;;;;;10477993;28;20701;-83
2023/09/28 02:21:53;;;;;;;22.25;15.45;;;;;;;;;;10483877;28;20041;-83
2023/09/28 02:26:55;;;;;;;38.35;22.80;;;;;;;;;;10461832;28;20717;-85
2023/09/28 02:31:56;;;;;;;30.58;19.90;;;;;;;;;;10466649;28;20044;-84
2023/09/28 02:36:57;;;;;;;26.02;17.55;;;;;;;;;;10474922;28;20032;-83
2023/09/28 02:41:58;;;;;;;22.33;14.98;;;;;;;;;;10462981;28;20072;-83
2023/09/28 02:46:59;;;;;;;23.95;16.55;;;;;;;;;;10486372;28;20063;-84
2023/09/28 02:52:06;;;;;;;24.77;16.17;;;;;;;;;;10476010;28;20154;-83
2023/09/28 02:57:07;;;;;;;25.58;17.23;;;;;;;;;;10478742;28;20041;-84
2023/09/28 03:02:08;;;;;;;27.25;17.27;;;;;;;;;;10473655;28;20492;-80
2023/09/28 03:07:19;;;;;;;35.05;19.70;;;;;;;;;;10481225;28;20074;-82
2023/09/28 03:12:20;;;;;;;29.58;17.30;;;;;;;;;;10472440;28;20040;-81
2023/09/28 03:17:21;;;;;;;29.55;18.50;;;;;;;;;;10467867;28;20024;-81
2023/09/28 03:22:22;;;;;;;29.98;17.23;;;;;;;;;;10480992;28;20831;-83
2023/09/28 03:27:23;;;;;;;29.65;16.70;;;;;;;;;;10482043;28;20035;-81
2023/09/28 03:32:24;;;;;;;25.75;17.52;;;;;;;;;;10479437;28;20036;-83
2023/09/28 03:37:25;;;;;;;25.10;17.65;;;;;;;;;;10483132;28;20114;-81
2023/09/28 03:42:26;;;;;;;23.38;15.38;;;;;;;;;;10472561;28;20472;-80
2023/09/28 03:47:27;;;;;;;19.92;14.50;;;;;;;;;;10487412;28;20494;-83
2023/09/28 03:52:28;;;;;;;23.45;14.10;;;;;;;;;;10498697;28;20067;-85
2023/09/28 03:57:29;;;;;;;26.88;18.00;;;;;;;;;;10499278;28;20760;-84
2023/09/28 04:02:31;;;;;;;23.83;15.77;;;;;;;;;;10492924;28;20116;-82
2023/09/28 04:07:32;;;;;;;25.35;16.67;;;;;;;;;;10475733;28;20044;-82
2023/09/28 04:12:33;;;;;;;23.40;16.05;;;;;;;;;;10487243;28;20043;-81
2023/09/28 04:17:34;;;;;;;26.55;17.92;;;;;;;;;;10493478;28;20039;-80
2023/09/28 04:22:35;;;;;;;28.20;19.10;;;;;;;;;;10496597;28;20766;-82
2023/09/28 04:27:42;;;;;;;31.80;19.48;;;;;;;;;;10485504;28;20032;-80
2023/09/28 04:32:43;;;;;;;28.85;19.85;;;;;;;;;;10479521;28;20035;-81
2023/09/28 04:37:45;;;;;;;46.83;26.20;;;;;;;;;;10497828;28;20012;-81
2023/09/28 04:42:46;;;;;;;66.47;29.70;;;;;;;;;;10498109;28;20103;-81
2023/09/28 04:47:47;;;;;;;48.65;25.85;;;;;;;;;;10497910;28;20029;-82
2023/09/28 04:52:48;;;;;;;34.25;22.02;;;;;;;;;;10507302;28;20144;-81
2023/09/28 04:57:55;;;;;;;30.75;19.85;;;;;;;;;;10482970;28;20064;-81
2023/09/28 05:02:58;;;;;;;49.17;24.70;;;;;;;;;;10485486;28;20021;-82
2023/09/28 05:07:59;;;;;;;43.80;23.33;;;;;;;;;;10491414;28;20460;-83
2023/09/28 05:13:00;;;;;;;68.93;31.90;;;;;;;;;;10490235;28;20089;-84
2023/09/28 05:18:07;;;;;;;58.92;32.85;;;;;;;;;;10488933;28;20671;-85
2023/09/28 05:23:09;;;;;;;38.30;25.42;;;;;;;;;;10471448;28;20062;-83
2023/09/28 05:28:10;;;;;;;45.10;28.65;;;;;;;;;;10487127;28;20081;-81
2023/09/28 05:33:18;;;;;;;37.05;25.27;;;;;;;;;;10480134;28;20063;-82
2023/09/28 05:38:19;;;;;;;43.88;27.70;;;;;;;;;;10488014;28;20025;-82
2023/09/28 05:43:20;;;;;;;48.45;30.02;;;;;;;;;;10478309;28;20036;-82
2023/09/28 05:48:21;;;;;;;54.45;32.40;;;;;;;;;;10488519;28;20024;-82
2023/09/28 05:53:29;;;;;;;48.75;30.50;;;;;;;;;;10488603;28;20056;-82
2023/09/28 05:58:30;;;;;;;40.22;26.85;;;;;;;;;;10486545;28;20085;-84
2023/09/28 06:03:32;;;;;;;44.88;26.88;;;;;;;;;;10484375;28;20089;-83
2023/09/28 06:08:33;;;;;;;39.13;26.25;;;;;;;;;;10469138;28;20033;-83
2023/09/28 06:13:34;;;;;;;44.53;26.85;;;;;;;;;;10487480;28;20048;-83
2023/09/28 06:18:36;;;;;;;45.63;26.70;;;;;;;;;;10485906;28;20037;-81
2023/09/28 06:23:37;;;;;;;39.78;25.65;;;;;;;;;;10467748;28;20031;-83
2023/09/28 06:28:38;;;;;;;37.17;25.33;;;;;;;;;;10478937;28;20403;-82
2023/09/28 06:33:39;;;;;;;41.28;24.75;;;;;;;;;;10482477;28;20051;-81
2023/09/28 06:38:40;;;;;;;36.75;23.95;;;;;;;;;;10485722;28;20052;-82
2023/09/28 06:43:41;;;;;;;39.83;22.48;;;;;;;;;;10486104;28;20043;-82
2023/09/28 06:48:42;;;;;;;39.42;21.95;;;;;;;;;;10486184;28;20028;-83
2023/09/28 06:53:49;;;;;;;41.72;23.27;;;;;;;;;;10484989;28;20064;-81
2023/09/28 06:58:50;;;;;;;37.00;21.77;;;;;;;;;;10479794;28;20024;-81
2023/09/28 07:03:52;;;;;;;34.85;22.73;;;;;;;;;;10485055;28;20078;-83
2023/09/28 07:08:53;;;;;;;30.42;18.95;;;;;;;;;;10485910;28;20036;-82
2023/09/28 07:13:54;;;;;;;29.48;19.63;;;;;;;;;;10485458;28;20044;-82
2023/09/28 07:18:56;;;;;;;33.42;20.63;;;;;;;;;;10485063;28;20040;-83
2023/09/28 07:23:57;;;;;;;34.88;20.17;;;;;;;;;;10484660;28;20036;-83
2023/09/28 07:28:58;;;;;;;33.85;21.05;;;;;;;;;;10465972;28;20487;-82
2023/09/28 07:33:59;;;;;;;28.50;19.05;;;;;;;;;;10484958;28;20051;-82
2023/09/28 07:39:00;;;;;;;33.47;18.77;;;;;;;;;;10485253;28;20025;-83
2023/09/28 07:44:01;;;;;;;27.42;16.92;;;;;;;;;;10485305;28;20024;-83
2023/09/28 07:49:02;;;;;;;32.70;16.98;;;;;;;;;;10484990;28;20127;-82
2023/09/28 07:54:03;;;;;;;28.55;16.42;;;;;;;;;;10484075;28;20064;-83
2023/09/28 07:59:04;;;;;;;23.52;15.48;;;;;;;;;;10484859;28;20062;-83
2023/09/28 08:04:06;;;;;;;22.13;12.65;;;;;;;;;;10484308;28;20065;-84
2023/09/28 08:09:13;;;;;;;23.00;13.50;;;;;;;;;;10467137;28;20114;-83
2023/09/28 08:14:15;;;;;;;29.05;13.43;;;;;;;;;;10485164;28;20032;-83
2023/09/28 08:19:16;;;;;;;25.98;13.70;;;;;;;;;;10485141;28;20539;-83
2023/09/28 08:24:17;;;;;;;20.67;12.38;;;;;;;;;;10484353;28;20039;-82
2023/09/28 08:29:18;;;;;;;21.13;11.23;;;;;;;;;;10482370;28;20553;-83
2023/09/28 08:34:20;;;;;;;19.80;11.25;;;;;;;;;;10479755;28;20033;-84
2023/09/28 08:39:21;;;;;;;20.83;10.93;;;;;;;;;;10473744;28;20079;-83
2023/09/28 08:44:26;;;;;;;18.08;10.05;;;;;;;;;;10491365;28;20032;-82
2023/09/28 08:49:34;;;;;;;22.00;9.68;;;;;;;;;;10491296;28;20094;-82
2023/09/28 08:54:35;;;;;;;18.73;9.13;;;;;;;;;;10479315;28;20198;-82
2023/09/28 08:59:38;;;;;;;17.75;8.57;;;;;;;;;;10491509;28;20024;-82
2023/09/28 09:04:39;;;;;;;17.75;8.45;;;;;;;;;;10489638;28;20025;-83
2023/09/28 09:09:41;;;;;;;19.23;8.75;;;;;;;;;;10490410;28;20020;-83
2023/09/28 09:14:43;;;;;;;10.82;6.40;;;;;;;;;;10490189;28;20039;-83
2023/09/28 09:19:44;;;;;;;10.18;6.40;;;;;;;;;;10472301;28;20033;-82
2023/09/28 09:24:58;;;;;;;16.80;7.28;;;;;;;;;;10490417;28;20028;-83
2023/09/28 09:30:06;;;;;;;13.98;7.47;;;;;;;;;;10489899;28;20020;-84
2023/09/28 09:35:07;;;;;;;12.93;7.40;;;;;;;;;;10490044;28;20032;-84
2023/09/28 09:40:12;;;;;;;9.80;5.97;;;;;;;;;;10470965;28;20033;-82
2023/09/28 09:45:13;;;;;;;17.60;7.38;;;;;;;;;;10488679;28;20554;-82
2023/09/28 09:50:16;;;;;;;13.07;6.43;;;;;;;;;;10489348;28;20058;-84
2023/09/28 09:55:23;;;;;;;9.75;5.97;;;;;;;;;;10488717;28;20029;-82
2023/09/28 10:00:24;;;;;;;11.52;5.88;;;;;;;;;;10488611;28;20045;-82
2023/09/28 10:05:29;;;;;;;8.95;5.32;;;;;;;;;;10470219;28;20062;-82
2023/09/28 10:10:30;;;;;;;;;;;;;;;;;;10488931;28;20039;-82
2023/09/28 10:15:33;;;;;;;10.45;5.75;;;;;;;;;;10487627;28;19912;-84
2023/09/28 10:20:34;;;;;;;13.85;5.18;;;;;;;;;;10487684;28;20264;-83
2023/09/28 10:25:52;;;;;;;11.35;5.40;;;;;;;;;;10487776;28;20128;-83
2023/09/28 10:31:07;;;;;;;8.63;5.38;;;;;;;;;;10487454;28;20515;-83
2023/09/28 10:36:12;;;;;;;9.65;4.95;;;;;;;;;;10486008;28;20067;-82
2023/09/28 10:41:14;;;;;;;7.72;4.47;;;;;;;;;;10487382;28;20040;-83
2023/09/28 10:46:16;;;;;;;9.48;5.05;;;;;;;;;;10473881;28;20452;-84
2023/09/28 10:51:20;;;;;;;7.97;4.57;;;;;;;;;;10486913;28;20167;-85
2023/09/28 10:56:21;;;;;;;10.02;4.80;;;;;;;;;;10486520;28;20017;-84
2023/09/28 11:01:22;;;;;;;6.60;4.20;;;;;;;;;;10485995;28;20028;-83
2023/09/28 11:06:24;;;;;;;8.70;4.80;;;;;;;;;;10486047;28;20032;-84
2023/09/28 11:11:25;;;;;;;7.28;4.10;;;;;;;;;;10485654;28;20500;-86
2023/09/28 11:16:27;;;;;;;9.50;4.50;;;;;;;;;;10485922;28;20028;-83
2023/09/28 11:21:29;;;;;;;9.25;4.63;;;;;;;;;;10486173;28;20025;-85
2023/09/28 11:26:31;;;;;;;8.45;4.35;;;;;;;;;;10467226;28;20073;-83
2023/09/28 11:31:35;;;;;;;5.95;3.45;;;;;;;;;;10485325;28;20044;-84
2023/09/28 11:36:36;;;;;;;8.43;4.28;;;;;;;;;;10485126;28;20039;-84
2023/09/28 11:41:54;;;;;;;9.95;4.80;;;;;;;;;;10485304;28;20380;-83
2023/09/28 11:46:56;;;;;;;7.35;4.13;;;;;;;;;;10486001;28;20040;-83
2023/09/28 11:52:04;;;;;;;10.07;4.40;;;;;;;;;;10484728;28;20051;-83
2023/09/28 11:57:12;;;;;;;7.88;4.32;;;;;;;;;;10485046;28;20605;-83
2023/09/28 12:02:13;;;;;;;8.20;4.53;;;;;;;;;;10450365;28;20068;-83
2023/09/28 12:07:16;;;;;;;5.32;4.10;;;;;;;;;;10485493;28;20585;-84
2023/09/28 12:12:17;;;;;;;5.93;3.97;;;;;;;;;;10492904;28;20043;-83
2023/09/28 12:17:18;;;;;;;5.90;3.90;;;;;;;;;;10492862;28;20405;-84
2023/09/28 12:22:19;;;;;;;6.30;4.07;;;;;;;;;;10485923;28;20763;-85
2023/09/28 12:27:20;;;;;;;7.05;4.10;;;;;;;;;;10482939;28;20028;-84
2023/09/28 12:32:22;;;;;;;7.40;4.45;;;;;;;;;;10484662;28;20657;-84
2023/09/28 12:37:23;;;;;;;6.47;4.40;;;;;;;;;;10486026;28;20043;-83
2023/09/28 12:42:24;;;;;;;12.57;5.35;;;;;;;;;;10473507;28;20032;-83
2023/09/28 12:47:26;;;;;;;7.32;4.60;;;;;;;;;;10469660;28;20032;-84
2023/09/28 12:52:27;;;;;;;6.70;3.78;;;;;;;;;;10489993;28;20061;-84
2023/09/28 12:57:28;;;;;;;5.28;3.90;;;;;;;;;;10481901;28;20396;-81
2023/09/28 13:02:30;;;;;;;8.50;5.03;;;;;;;;;;10485759;28;20033;-84
2023/09/28 13:07:31;;;;;;;7.82;4.53;;;;;;;;;;10490701;28;20063;-84
2023/09/28 13:12:32;;;;;;;13.50;7.50;;;;;;;;;;10488329;28;20029;-83
2023/09/28 13:17:34;;;;;;;12.55;6.00;;;;;;;;;;10465936;28;20711;-83
2023/09/28 13:22:36;;;;;;;34.80;23.92;;;;;;;;;;10489986;28;20062;-86
2023/09/28 13:27:37;;;;;;;17.00;8.90;;;;;;;;;;10470609;28;20044;-83
2023/09/28 13:32:38;;;;;;;26.58;17.48;;;;;;;;;;10479293;28;20112;-83
2023/09/28 13:37:39;;;;;;;73.38;47.45;;;;;;;;;;10488824;28;20032;-84
2023/09/28 13:42:40;;;;;;;56.22;41.50;;;;;;;;;;10487167;28;20496;-84
2023/09/28 13:47:42;;;;;;;12.32;8.10;;;;;;;;;;10470334;28;20052;-84
2023/09/28 13:52:46;;;;;;;24.88;15.05;;;;;;;;;;10468739;28;20109;-87
2023/09/28 13:57:47;;;;;;;17.27;11.43;;;;;;;;;;10475804;28;20029;-80
2023/09/28 14:02:48;;;;;;;33.30;22.45;;;;;;;;;;10487344;28;20370;-83
2023/09/28 14:07:50;;;;;;;17.17;11.40;;;;;;;;;;10489721;28;20025;-82
2023/09/28 14:12:51;;;;;;;19.17;12.18;;;;;;;;;;10488076;28;20048;-82
2023/09/28 14:17:53;;;;;;;14.18;9.02;;;;;;;;;;10480453;28;20029;-84
2023/09/28 14:22:54;;;;;;;9.25;7.28;;;;;;;;;;10486957;28;20029;-85
2023/09/28 14:27:55;;;;;;;12.82;8.30;;;;;;;;;;10480915;28;20020;-85
2023/09/28 14:32:57;;;;;;;27.98;7.63;;;;;;;;;;10478520;28;20554;-82
2023/09/28 14:37:58;;;;;;;9.55;6.18;;;;;;;;;;10476222;28;20052;-85
2023/09/28 14:43:03;;;;;;;11.30;7.00;;;;;;;;;;10474224;28;20487;-84
2023/09/28 14:48:04;;;;;;;10.20;6.45;;;;;;;;;;10465148;28;20044;-84
2023/09/28 14:53:08;;;;;;;12.18;7.18;;;;;;;;;;10481488;28;20149;-86
2023/09/28 14:58:10;;;;;;;11.90;7.35;;;;;;;;;;10479762;28;20025;-85
2023/09/28 15:03:12;;;;;;;11.63;7.20;;;;;;;;;;10461036;28;20029;-81
2023/09/28 15:08:14;;;;;;;8.55;5.65;;;;;;;;;;10469918;28;20790;-81
2023/09/28 15:13:15;;;;;;;10.68;6.43;;;;;;;;;;10452198;28;20068;-80
2023/09/28 15:18:16;;;;;;;8.55;6.60;;;;;;;;;;10461219;28;20491;-83
2023/09/28 15:23:17;;;;;;;12.07;6.20;;;;;;;;;;10466371;28;20070;-83
2023/09/28 15:28:19;;;;;;;11.73;7.20;;;;;;;;;;10446611;28;20040;-82
2023/09/28 15:33:20;;;;;;;12.23;7.07;;;;;;;;;;10459659;28;20433;-82
2023/09/28 15:38:22;;;;;;;17.92;6.88;;;;;;;;;;10469058;28;20102;-84
2023/09/28 15:43:23;;;;;;;10.35;6.68;;;;;;;;;;10446040;28;20698;-82
2023/09/28 15:48:24;;;;;;;10.30;6.35;;;;;;;;;;10459176;28;20052;-80
2023/09/28 15:53:25;;;;;;;10.52;6.65;;;;;;;;;;10470736;28;20060;-79
2023/09/28 15:58:33;;;;;;;12.75;5.90;;;;;;;;;;10485363;28;20028;-84
2023/09/28 16:03:34;;;;;;;9.35;6.90;;;;;;;;;;10465662;28;20388;-88
2023/09/28 16:08:37;;;;;;;8.18;6.60;;;;;;;;;;10485580;28;20028;-84
2023/09/28 16:13:38;;;;;;;11.63;6.07;;;;;;;;;;10484919;28;20048;-87
2023/09/28 16:18:39;;;;;;;13.32;7.75;;;;;;;;;;10485314;28;20024;-83
2023/09/28 16:23:40;;;;;;;14.35;7.07;;;;;;;;;;10468668;28;20036;-83
2023/09/28 16:28:41;;;;;;;11.07;7.03;;;;;;;;;;10474714;28;20461;-83
2023/09/28 16:33:49;;;;;;;17.58;9.38;;;;;;;;;;10475246;28;20044;-83
2023/09/28 16:38:50;;;;;;;22.95;10.80;;;;;;;;;;10482849;28;20036;-85
2023/09/28 16:43:51;;;;;;;12.68;7.40;;;;;;;;;;10483771;28;20033;-86
2023/09/28 16:48:52;;;;;;;12.20;7.57;;;;;;;;;;10464257;28;20039;-86
2023/09/28 16:53:54;;;;;;;14.68;7.70;;;;;;;;;;10456533;28;20096;-86
2023/09/28 16:58:55;;;;;;;12.43;8.30;;;;;;;;;;10454472;28;20036;-85
2023/09/28 17:03:56;;;;;;;16.10;8.40;;;;;;;;;;10470508;28;20024;-86
2023/09/28 17:08:57;;;;;;;13.48;8.10;;;;;;;;;;10475568;28;20029;-85
2023/09/28 17:14:05;;;;;;;14.00;8.20;;;;;;;;;;10470283;28;20036;-86
2023/09/28 17:19:06;;;;;;;14.23;8.40;;;;;;;;;;10479657;28;20475;-86
2023/09/28 17:24:07;;;;;;;18.27;11.40;;;;;;;;;;10475968;28;20025;-86
2023/09/28 17:29:08;;;;;;;15.40;10.15;;;;;;;;;;10489834;28;20025;-87
2023/09/28 17:34:10;;;;;;;15.85;9.80;;;;;;;;;;10471861;28;20036;-85
2023/09/28 17:39:11;;;;;;;16.80;10.35;;;;;;;;;;10484682;28;20025;-85
2023/09/28 17:44:12;;;;;;;18.35;10.10;;;;;;;;;;10490225;28;20033;-85
2023/09/28 17:49:13;;;;;;;14.50;9.20;;;;;;;;;;10488999;28;20033;-85
2023/09/28 17:54:14;;;;;;;16.02;9.90;;;;;;;;;;10478449;28;20786;-86
2023/09/28 17:59:28;;;;;;;16.90;11.05;;;;;;;;;;10487104;28;20450;-85
2023/09/28 18:04:29;;;;;;;14.85;9.20;;;;;;;;;;10473657;28;20110;-86
2023/09/28 18:09:37;;;;;;;13.75;9.10;;;;;;;;;;10468678;28;20674;-85
2023/09/28 18:14:38;;;;;;;17.15;10.60;;;;;;;;;;10486115;28;20084;-88
2023/09/28 18:19:39;;;;;;;15.20;9.23;;;;;;;;;;10488003;28;20020;-85
2023/09/28 18:24:40;;;;;;;21.17;12.65;;;;;;;;;;10477808;28;20036;-89
2023/09/28 18:29:47;;;;;;;16.98;11.30;;;;;;;;;;10476312;28;20123;-84
2023/09/28 18:34:48;;;;;;;16.30;11.02;;;;;;;;;;10473627;28;20041;-83
2023/09/28 18:39:49;;;;;;;18.75;10.30;;;;;;;;;;10484952;28;20023;-84
2023/09/28 18:44:50;;;;;;;15.63;10.70;;;;;;;;;;10479029;28;20475;-84
2023/09/28 18:49:51;;;;;;;22.40;12.07;;;;;;;;;;10482806;28;20025;-84
2023/09/28 18:54:52;;;;;;;15.20;10.55;;;;;;;;;;10477052;28;20518;-84
2023/09/28 18:59:54;;;;;;;17.52;10.70;;;;;;;;;;10475536;28;20024;-84
2023/09/28 19:04:55;;;;;;;18.75;11.20;;;;;;;;;;10463323;28;20032;-85
2023/09/28 19:09:56;;;;;;;23.33;11.30;;;;;;;;;;10469537;28;20029;-85
2023/09/28 19:14:57;;;;;;;17.48;11.25;;;;;;;;;;10469563;28;20818;-83
2023/09/28 19:19:59;;;;;;;20.15;12.07;;;;;;;;;;10477830;28;20059;-84
2023/09/28 19:25:01;;;;;;;17.85;11.32;;;;;;;;;;10486782;28;20016;-83
2023/09/28 19:30:03;;;;;;;16.77;10.32;;;;;;;;;;10486042;28;20024;-85
2023/09/28 19:35:04;;;;;;;18.05;11.13;;;;;;;;;;10472677;28;20047;-85
2023/09/28 19:40:05;;;;;;;17.52;10.27;;;;;;;;;;10482616;28;20036;-84
2023/09/28 19:45:07;;;;;;;19.23;10.45;;;;;;;;;;10454384;28;20036;-85
2023/09/28 19:50:08;;;;;;;17.35;11.05;;;;;;;;;;10477760;28;20124;-84
2023/09/28 19:55:09;;;;;;;19.08;11.00;;;;;;;;;;10479762;28;20186;-86
2023/09/28 20:00:10;;;;;;;19.80;11.77;;;;;;;;;;10474696;28;20460;-84
2023/09/28 20:05:12;;;;;;;15.05;9.93;;;;;;;;;;10449864;28;20487;-84
2023/09/28 20:10:13;;;;;;;17.85;10.48;;;;;;;;;;10466459;28;20032;-84
2023/09/28 20:15:14;;;;;;;18.00;10.30;;;;;;;;;;10477765;28;20052;-84
2023/09/28 20:20:15;;;;;;;15.27;10.80;;;;;;;;;;10463029;28;20544;-84
2023/09/28 20:25:16;;;;;;;21.40;12.05;;;;;;;;;;10472812;28;20082;-85
2023/09/28 20:30:17;;;;;;;16.70;10.20;;;;;;;;;;10490451;28;20677;-85
2023/09/28 20:35:18;;;;;;;21.10;11.95;;;;;;;;;;10489802;28;20031;-84
2023/09/28 20:40:19;;;;;;;24.48;13.35;;;;;;;;;;10492571;28;20476;-84
2023/09/28 20:45:20;;;;;;;20.35;12.10;;;;;;;;;;10479704;28;20059;-83
2023/09/28 20:50:21;;;;;;;18.60;12.07;;;;;;;;;;10490820;28;20036;-85
2023/09/28 20:55:22;;;;;;;18.17;10.57;;;;;;;;;;10446110;28;20132;-87
2023/09/28 21:00:23;;;;;;;20.48;11.85;;;;;;;;;;10425147;28;20032;-85
2023/09/28 21:05:25;;;;;;;17.70;10.80;;;;;;;;;;10446927;28;20086;-84
2023/09/28 21:10:26;;;;;;;23.00;11.50;;;;;;;;;;10450010;28;20113;-86
2023/09/28 21:15:27;;;;;;;20.20;11.85;;;;;;;;;;10439165;28;20037;-85
2023/09/28 21:20:28;;;;;;;22.73;12.77;;;;;;;;;;10447810;28;20043;-84
2023/09/28 21:25:29;;;;;;;21.50;13.02;;;;;;;;;;10447712;28;20891;-84
2023/09/28 21:30:30;;;;;;;23.02;13.18;;;;;;;;;;10431537;28;20048;-84
2023/09/28 21:35:31;;;;;;;19.48;11.50;;;;;;;;;;10443701;28;20041;-84
2023/09/28 21:40:32;;;;;;;22.80;12.00;;;;;;;;;;10447429;28;20434;-84
2023/09/28 21:45:33;;;;;;;20.95;11.60;;;;;;;;;;10446935;28;20029;-84
2023/09/28 21:50:34;;;;;;;17.58;10.85;;;;;;;;;;10440433;28;20561;-84
2023/09/28 21:55:35;;;;;;;22.00;11.73;;;;;;;;;;10478722;28;20068;-84
2023/09/28 22:00:39;;;;;;;19.45;12.23;;;;;;;;;;10488870;28;20479;-84
2023/09/28 22:05:40;;;;;;;21.75;12.32;;;;;;;;;;10470606;28;20468;-83
2023/09/28 22:10:41;;;;;;;22.85;13.52;;;;;;;;;;10470767;28;20029;-84
2023/09/28 22:15:45;;;;;;;21.48;13.13;;;;;;;;;;10469940;28;20415;-85
2023/09/28 22:20:46;;;;;;;18.30;11.32;;;;;;;;;;10469684;28;20032;-84
2023/09/28 22:25:47;;;;;;;27.63;14.07;;;;;;;;;;10486684;28;20028;-86
2023/09/28 22:30:48;;;;;;;25.52;13.50;;;;;;;;;;10473780;28;20039;-85
2023/09/28 22:35:49;;;;;;;24.95;16.55;;;;;;;;;;10469539;28;20094;-84
2023/09/28 22:40:50;;;;;;;20.63;12.23;;;;;;;;;;10487988;28;20066;-84
2023/09/28 22:45:51;;;;;;;25.92;15.70;;;;;;;;;;10485896;28;20529;-84
2023/09/28 22:50:52;;;;;;;27.08;15.90;;;;;;;;;;10464366;28;20021;-85
2023/09/28 22:55:53;;;;;;;30.55;17.90;;;;;;;;;;10481839;28;20056;-84
2023/09/28 23:00:54;;;;;;;33.25;19.83;;;;;;;;;;10468520;28;20028;-85
2023/09/28 23:05:56;;;;;;;31.08;18.13;;;;;;;;;;10486214;28;20032;-85
2023/09/28 23:10:57;;;;;;;32.28;20.08;;;;;;;;;;10485930;28;20567;-84
2023/09/28 23:16:05;;;;;;;26.85;16.52;;;;;;;;;;10485675;28;20115;-84
2023/09/28 23:21:08;;;;;;;31.45;18.65;;;;;;;;;;10485541;28;20657;-84
2023/09/28 23:26:10;;;;;;;26.80;16.13;;;;;;;;;;10466197;28;20025;-86
2023/09/28 23:31:11;;;;;;;26.33;15.10;;;;;;;;;;10467135;28;20040;-86
2023/09/28 23:36:15;;;;;;;32.22;17.45;;;;;;;;;;10467294;28;20137;-86
2023/09/28 23:41:18;;;;;;;32.72;19.08;;;;;;;;;;10467169;28;20033;-86
2023/09/28 23:46:19;;;;;;;35.55;21.27;;;;;;;;;;10467145;28;20043;-85
2023/09/28 23:51:21;;;;;;;23.75;16.20;;;;;;;;;;10466848;28;20048;-86
2023/09/28 23:56:29;;;;;;;21.02;13.60;;;;;;;;;;10441976;28;20485;-86
